Historyczne dane pomiarowe

Dodano dane terminowe – wersja testowa.

Dane z okresu 1951-2019

Wersja bazy: 1.34 [2019-03-16, lista zmian], aktualizacja planowana na 2019-04-15

Dane meteo z obszaru Polski uzyskane na podstawie danych udostępnionych przez Instytut Meteorologii i Gospodarki Wodnej – Państwowy Instytut Badawczy.

 

Wybierz Datę:    

       

TemperaturaWilgotnośćWiatrCiśnienieOpadyŚniegCzas trwania zjawisk
 Stacja t tx tn tng RH VA  wxwx mslp ppp RRR   cm mm wxwxwxwxwxwxwx
1962-05-15 -3.3 -2.3 -4.2- 97.0- 8.0 9.7---- 2.9-- 84---------
1962-05-16 -4.1 -2.8 -5.0- 96.5- 7.3 9.3---- 3.2-- 86---------
1962-05-17 0.0 1.7 -5.9- 93.8- 6.7 11.0---- 0.6-- 87---------
1962-05-18 0.5 2.5 -0.3- 81.3- 5.0 6.0---- 0.7-- 83---------
1962-05-19 4.2 6.5 -0.5- 81.8- 5.3 12.7---- 2.0-- 80---------
1962-05-20 1.7 7.2 -1.4- 98.5- 7.7 7.0---- 28.7-- 69---------
1962-05-21 -2.6 -1.1 -2.9- 97.3- 8.0 5.3---- 11.2-- 70---------
1962-05-22 -0.1 1.7 -3.2- 88.5- 3.3 4.3---- 0.1-- 78---------
1962-05-23 3.5 7.4 -0.2- 79.3- 3.3 3.7---- 0.0-- 74---------
1962-05-24 3.5 5.9 2.5- 98.3- 7.3 3.7---- 24.7-- 68---------
1962-05-25 3.6 6.0 0.5- 97.0- 8.0 5.7---- 20.5-- 60---------
1962-05-26 4.6 6.5 3.4- 97.0- 7.3 7.7---- 8.8-- 54---------
1962-05-27 5.1 6.3 3.0- 99.3- 7.0 7.0---- 1.0-- 47---------
1962-05-28 5.7 7.7 4.1- 96.5- 5.3 7.7---- 4.7-- 40---------
1962-05-29 5.2 6.7 4.7- 99.0- 7.3 5.0---- 0.9------------
1962-05-30 0.9 4.9 -0.5- 98.5- 7.0 4.3---- 0.8------------
1962-05-31 3.7 7.9 -0.7- 82.8- 3.7 7.3---- 7.3------------
1962-06-01 4.1 8.7 -2.5-100.0- 8.0 10.7---- 33.9------------
1962-06-02 -1.9 7.5 -4.5- 97.3- 8.0 5.3---- 4.3------------
1962-06-03 -3.9 -2.5 -4.7- 96.8- 8.0 6.0---- 22.9-- 4---------
1962-06-04 -4.5 -3.6 -4.9- 97.0- 8.0 5.3---- 56.9-- 21---------
1962-06-05 -4.1 -3.0 -6.0- 97.5- 8.0 10.3---- 53.7-- 75---------
1962-06-06 -6.0 -2.5 -6.7- 96.5- 8.0 14.7---- 70.4--120---------
1962-06-07 -5.2 -2.9 -7.5- 97.8- 8.0 9.0---- 19.0--180---------
1962-06-08 -1.1 0.1 -5.2- 98.8- 7.7 4.7---- 0.6--200---------
1962-06-09 1.0 3.5 -2.0- 97.5- 6.3 1.0---- 0.6--178---------
1962-06-10 2.7 5.3 1.0- 92.5- 7.0 2.0---- 0.3--160---------
1962-06-11 2.5 6.7 0.9- 90.5- 6.7 3.0---- 14.6--135---------
1962-06-12 -1.2 2.1 -1.8- 99.3- 8.0 3.3---- 6.4--105---------
1962-06-13 -0.4 1.7 -4.0- 90.0- 5.0 2.3---- 0.0--103---------
194.5 ms

 

Źródłem pochodzenia danych jest Instytut Meteorologii i Gospodarki Wodnej – Państwowy Instytut Badawczy. Dane Instytutu Meteorologii i Gospodarki Wodnej – Państwowego Instytutu Badawczego zostały przetworzone.

Dane źródłowe można odnaleźć na stronie https://dane.imgw.pl